Time;durP1;ratioP1;P1;durP2;ratioP2;P2;SDS_P1;SDS_P2;PMS_P1;PMS_P2;Temp;Humidity;BMP_temperature;BMP_pressure;BME280_temperature;BME280_humidity;BME280_pressure;Samples;Min_cycle;Max_cycle;Signal;HPM_P1;HPM_P2
2023/08/17 00:01:41;;;;;;;2.70;1.50;;;;;;;15.48;72.45;100274.70;106591;1272;22639;-71
2023/08/17 00:04:13;;;;;;;3.80;1.40;;;;;;;15.45;72.67;100274.68;106486;1273;24276;-71
2023/08/17 00:07:05;;;;;;;4.00;1.30;;;;;;;15.42;72.71;100277.82;107829;1274;100261;-71
2023/08/17 00:10:23;;;;;;;4.00;1.60;;;;;;;15.37;73.06;100282.66;107445;1274;23369;-72
2023/08/17 00:12:52;;;;;;;3.60;1.60;;;;;;;15.33;73.11;100280.84;106389;1275;101140;-73
2023/08/17 00:15:20;;;;;;;4.30;1.40;;;;;;;15.27;73.22;100281.52;106188;1275;23912;-71
2023/08/17 00:17:49;;;;;;;1.60;1.10;;;;;;;15.23;73.42;100279.46;106214;1274;99951;-72
2023/08/17 00:20:18;;;;;;;3.10;1.30;;;;;;;15.21;73.49;100278.52;106161;1275;25431;-72
2023/08/17 00:22:46;;;;;;;2.50;1.10;;;;;;;15.19;73.71;100274.14;106053;1274;100371;-71
2023/08/17 00:25:15;;;;;;;3.20;1.10;;;;;;;15.18;74.00;100269.95;106105;1275;25498;-73
2023/08/17 00:27:43;;;;;;;2.60;1.20;;;;;;;15.19;74.05;100270.94;110046;1274;22581;-73
2023/08/17 00:30:12;;;;;;;5.10;1.20;;;;;;;15.20;74.20;100273.34;106843;1275;99676;-72
2023/08/17 00:32:40;;;;;;;3.60;1.30;;;;;;;15.19;74.23;100277.27;106199;1275;22534;-73
2023/08/17 00:35:09;;;;;;;1.60;1.00;;;;;;;15.16;74.33;100279.91;106411;1271;100188;-71
2023/08/17 00:37:38;;;;;;;3.30;0.80;;;;;;;15.11;74.36;100275.60;106186;1275;25297;-72
2023/08/17 00:40:07;;;;;;;3.20;1.60;;;;;;;15.09;74.48;100279.10;106181;1274;22810;-71
2023/08/17 00:42:36;;;;;;;1.10;0.80;;;;;;;15.07;74.58;100277.98;106159;1275;99656;-72
2023/08/17 00:45:05;;;;;;;3.60;1.40;;;;;;;15.03;74.42;100279.43;106225;1274;25516;-72
2023/08/17 00:47:33;;;;;;;4.10;2.00;;;;;;;14.98;74.56;100273.19;106172;1275;99389;-73
2023/08/17 00:50:02;;;;;;;3.30;1.30;;;;;;;14.93;74.61;100278.02;106185;1275;22579;-72
2023/08/17 00:52:32;;;;;;;1.70;1.50;;;;;;;14.91;74.72;100278.30;106243;1275;22592;-73
2023/08/17 00:55:03;;;;;;;3.10;1.50;;;;;;;14.87;74.68;100276.64;106525;1272;99318;-72
2023/08/17 00:57:33;;;;;;;3.50;1.40;;;;;;;14.85;74.84;100273.25;106515;1272;22536;-73
2023/08/17 01:00:03;;;;;;;2.70;1.40;;;;;;;14.80;74.91;100271.93;106348;1272;99953;-74
2023/08/17 01:02:35;;;;;;;3.20;1.30;;;;;;;14.79;75.02;100273.38;106411;1273;22605;-72
2023/08/17 01:05:05;;;;;;;2.40;1.10;;;;;;;14.78;74.98;100276.45;106668;1272;99610;-71
2023/08/17 01:07:34;;;;;;;1.80;1.10;;;;;;;14.76;75.22;100277.93;106612;1272;24049;-73
2023/08/17 01:10:07;;;;;;;2.40;1.20;;;;;;;14.74;75.26;100277.03;106441;1257;22526;-71
2023/08/17 01:12:42;;;;;;;3.00;1.30;;;;;;;14.72;75.28;100277.10;106425;1272;99448;-72
2023/08/17 01:15:18;;;;;;;2.00;1.60;;;;;;;14.69;75.48;100278.49;106462;1272;22568;-72
2023/08/17 01:18:22;;;;;;;2.20;1.40;;;;;;;14.67;75.55;100283.38;106337;1273;100004;-71
2023/08/17 01:20:53;;;;;;;2.50;1.50;;;;;;;14.59;75.64;100276.76;106616;1272;23902;-70
2023/08/17 01:23:22;;;;;;;2.30;1.40;;;;;;;14.53;75.73;100274.27;106744;1264;100225;-71
2023/08/17 01:25:51;;;;;;;1.80;1.30;;;;;;;14.50;75.78;100273.02;106585;1272;24273;-72
2023/08/17 01:28:20;;;;;;;2.00;1.50;;;;;;;14.46;75.80;100276.74;106454;1272;22661;-72
2023/08/17 01:31:11;;;;;;;1.30;1.00;;;;;;;14.41;75.86;100277.19;106648;1272;99772;-72
2023/08/17 01:33:48;;;;;;;2.80;1.10;;;;;;;14.35;75.98;100272.80;106474;1273;22549;-71
2023/08/17 01:36:32;;;;;;;1.70;1.10;;;;;;;14.31;76.10;100272.88;106376;1272;99499;-73
2023/08/17 01:39:01;;;;;;;1.50;1.00;;;;;;;14.27;76.26;100268.70;106414;1272;22623;-71
2023/08/17 01:41:31;;;;;;;3.80;1.30;;;;;;;14.26;76.41;100266.44;106496;1272;99937;-72
2023/08/17 01:44:01;;;;;;;2.30;1.30;;;;;;;14.27;76.41;100262.05;106263;1272;22540;-71
2023/08/17 01:46:33;;;;;;;2.20;1.20;;;;;;;14.27;76.64;100262.58;106433;1272;22539;-72
2023/08/17 01:49:02;;;;;;;2.40;1.10;;;;;;;14.26;76.72;100264.73;106393;1272;99322;-72
2023/08/17 01:51:31;;;;;;;2.00;1.00;;;;;;;14.25;76.72;100265.11;106353;1272;25362;-70
2023/08/17 01:54:00;;;;;;;3.80;0.90;;;;;;;14.24;76.76;100263.27;106447;1272;99737;-71
2023/08/17 01:56:29;;;;;;;1.60;1.20;;;;;;;14.21;76.96;100258.31;106670;1273;22543;-71
2023/08/17 01:59:02;;;;;;;4.10;2.20;;;;;;;14.21;77.16;100251.52;106501;1272;99635;-70
2023/08/17 02:01:34;;;;;;;4.50;1.30;;;;;;;14.21;77.20;100254.50;106484;1272;24289;-72
2023/08/17 02:04:03;;;;;;;2.80;1.50;;;;;;;14.20;77.48;100263.29;106789;1272;22523;-72
2023/08/17 02:06:32;;;;;;;3.10;1.40;;;;;;;14.21;77.64;100270.75;106538;1258;99872;-71
2023/08/17 02:09:00;;;;;;;3.90;1.30;;;;;;;14.21;77.83;100271.81;106573;1272;22526;-71
2023/08/17 02:11:29;;;;;;;3.80;1.70;;;;;;;14.23;78.02;100266.83;106526;1271;99686;-72
2023/08/17 02:13:58;;;;;;;3.10;1.30;;;;;;;14.24;78.11;100266.42;106451;1272;25492;-71
2023/08/17 02:16:27;;;;;;;1.90;1.20;;;;;;;14.23;78.19;100272.60;106898;1272;24266;-71
2023/08/17 02:18:56;;;;;;;3.00;1.50;;;;;;;14.22;78.32;100274.92;106504;1272;99460;-72
2023/08/17 02:21:25;;;;;;;2.30;1.10;;;;;;;14.21;78.49;100273.58;106425;1272;25418;-72
2023/08/17 02:23:53;;;;;;;1.90;1.10;;;;;;;14.21;78.60;100275.52;106454;1271;99568;-70
2023/08/17 02:26:22;;;;;;;1.50;1.20;;;;;;;14.19;78.61;100277.67;106479;1272;25253;-72
2023/08/17 02:28:51;;;;;;;1.80;1.30;;;;;;;14.19;78.78;100283.48;106552;1272;99684;-72
2023/08/17 02:31:20;;;;;;;3.90;1.80;;;;;;;14.20;78.92;100279.76;106581;1272;22579;-72
2023/08/17 02:33:49;;;;;;;4.30;1.80;;;;;;;14.19;79.04;100276.27;106642;1272;22534;-71
2023/08/17 02:36:18;;;;;;;1.90;1.10;;;;;;;14.20;79.20;100275.55;106421;1272;101784;-72
2023/08/17 02:38:47;;;;;;;2.40;1.30;;;;;;;14.19;79.22;100274.75;106542;1274;25239;-72
2023/08/17 02:41:18;;;;;;;4.80;1.30;;;;;;;14.18;79.27;100271.63;106327;1277;99662;-72
2023/08/17 02:43:47;;;;;;;1.90;1.10;;;;;;;14.19;79.50;100273.47;106531;1272;25311;-72
2023/08/17 02:46:16;;;;;;;2.00;1.30;;;;;;;14.20;79.54;100277.27;106568;1272;25356;-73
2023/08/17 02:48:49;;;;;;;2.10;0.90;;;;;;;14.22;79.64;100277.88;106797;1272;99496;-71
2023/08/17 02:51:18;;;;;;;2.30;1.00;;;;;;;14.23;79.77;100278.90;106518;1274;27530;-74
2023/08/17 02:53:47;;;;;;;2.30;1.10;;;;;;;14.22;79.84;100278.63;106627;1272;99932;-71
2023/08/17 02:56:16;;;;;;;3.10;1.20;;;;;;;14.23;80.02;100283.80;106604;1272;22530;-72
2023/08/17 02:58:44;;;;;;;2.80;1.20;;;;;;;14.23;80.04;100285.90;106317;1271;99680;-71
2023/08/17 03:01:13;;;;;;;2.30;1.10;;;;;;;14.23;80.17;100288.48;106677;1271;25367;-72
2023/08/17 03:03:48;;;;;;;2.90;1.10;;;;;;;14.19;80.19;100290.45;106640;1272;25320;-72
2023/08/17 03:06:17;;;;;;;3.80;1.20;;;;;;;14.17;80.19;100291.27;106611;1272;99445;-72
2023/08/17 03:08:46;;;;;;;2.50;1.30;;;;;;;14.15;80.28;100286.29;106535;1273;22535;-71
2023/08/17 03:11:20;;;;;;;2.60;1.10;;;;;;;14.15;80.35;100286.69;106641;1271;99699;-72
2023/08/17 03:14:00;;;;;;;3.00;1.40;;;;;;;14.15;80.49;100281.27;106671;1272;22951;-72
2023/08/17 03:16:30;;;;;;;2.00;1.10;;;;;;;14.14;80.59;100282.85;106721;1272;24201;-71
2023/08/17 03:18:59;;;;;;;3.50;1.40;;;;;;;14.15;80.57;100278.10;106561;1264;99215;-72
2023/08/17 03:21:28;;;;;;;3.60;1.40;;;;;;;14.16;80.81;100277.67;106560;1274;22650;-73
2023/08/17 03:23:57;;;;;;;3.20;1.70;;;;;;;14.18;80.98;100274.42;106410;1273;99485;-72
2023/08/17 03:26:46;;;;;;;3.60;1.10;;;;;;;14.21;81.02;100276.36;106595;1272;24274;-72
2023/08/17 03:29:21;;;;;;;2.90;1.30;;;;;;;14.25;81.10;100282.08;106573;1269;99589;-72
2023/08/17 03:31:50;;;;;;;1.30;0.80;;;;;;;14.27;81.05;100280.21;106485;1274;23877;-69
2023/08/17 03:34:25;;;;;;;4.10;1.20;;;;;;;14.28;81.03;100284.76;106701;1272;22669;-69
2023/08/17 03:36:55;;;;;;;2.10;1.60;;;;;;;14.28;81.08;100282.63;106940;1272;99693;-67
2023/08/17 03:39:29;;;;;;;2.60;1.20;;;;;;;14.29;81.24;100282.91;106716;1272;25297;-70
2023/08/17 03:42:05;;;;;;;6.10;1.20;;;;;;;14.31;81.36;100281.41;106590;1273;99497;-71
2023/08/17 03:44:34;;;;;;;2.30;1.20;;;;;;;14.33;81.37;100283.23;106467;1272;25342;-72
2023/08/17 03:47:23;;;;;;;3.70;0.80;;;;;;;14.38;81.34;100284.20;106629;1272;99692;-75
2023/08/17 03:49:56;;;;;;;1.50;1.10;;;;;;;14.46;81.35;100286.41;106692;1272;25287;-72
2023/08/17 03:52:33;;;;;;;5.70;1.40;;;;;;;14.51;81.37;100280.52;106691;1273;22538;-71
2023/08/17 03:55:08;;;;;;;5.70;1.20;;;;;;;14.52;81.45;100275.57;106591;1274;99222;-73
2023/08/17 03:57:39;;;;;;;2.80;1.00;;;;;;;14.60;81.90;100270.41;106596;1272;23884;-71
2023/08/17 04:00:13;;;;;;;2.50;1.00;;;;;;;14.72;82.12;100277.12;106526;1268;99685;-73
2023/08/17 04:02:45;;;;;;;1.70;0.90;;;;;;;14.84;82.23;100278.91;106471;1272;23875;-72
2023/08/17 04:05:14;;;;;;;3.20;0.90;;;;;;;14.90;82.09;100277.31;106580;1266;99675;-71
2023/08/17 04:07:43;;;;;;;2.20;1.30;;;;;;;14.96;82.63;100272.42;106494;1271;25279;-72
2023/08/17 04:10:12;;;;;;;1.70;0.70;;;;;;;15.08;82.75;100275.27;106417;1272;22540;-73
2023/08/17 04:12:41;;;;;;;8.80;1.30;;;;;;;15.19;82.65;100276.73;106516;1266;99915;-73
2023/08/17 04:15:09;;;;;;;3.00;1.30;;;;;;;15.28;82.45;100272.21;106426;1272;24242;-72
2023/08/17 04:17:44;;;;;;;6.90;1.40;;;;;;;15.38;82.62;100272.29;106492;1272;99643;-72
2023/08/17 04:20:13;;;;;;;4.80;0.90;;;;;;;15.52;82.72;100270.05;106654;1272;22601;-72
2023/08/17 04:22:42;;;;;;;8.70;1.60;;;;;;;15.62;82.68;100265.96;106747;1274;99592;-69
2023/08/17 04:25:10;;;;;;;10.00;1.40;;;;;;;15.71;82.72;100263.14;106403;1272;22767;-72
2023/08/17 04:27:39;;;;;;;4.60;0.90;;;;;;;15.84;82.94;100271.85;106632;1272;25335;-73
2023/08/17 04:30:10;;;;;;;7.10;1.30;;;;;;;15.97;82.99;100270.04;106560;1272;99396;-72
2023/08/17 04:32:51;;;;;;;20.30;2.60;;;;;;;16.08;82.94;100273.04;106533;1272;22520;-73
2023/08/17 04:35:21;;;;;;;7.60;1.70;;;;;;;16.21;82.99;100266.61;106770;1272;99802;-73
2023/08/17 04:37:50;;;;;;;7.30;2.00;;;;;;;16.34;83.06;100266.19;106636;1272;22586;-72
2023/08/17 04:40:19;;;;;;;7.50;1.10;;;;;;;16.45;83.15;100266.36;106571;1272;27665;-73
2023/08/17 04:42:48;;;;;;;5.70;1.50;;;;;;;16.58;83.17;100268.04;106403;1273;99404;-71
2023/08/17 04:45:17;;;;;;;3.20;0.80;;;;;;;16.69;83.31;100267.80;106515;1272;22673;-72
2023/08/17 04:47:46;;;;;;;1.50;0.80;;;;;;;16.85;83.36;100273.39;106376;1271;99497;-72
2023/08/17 04:50:16;;;;;;;5.20;1.60;;;;;;;16.91;82.85;100269.62;106774;1272;25238;-73
2023/08/17 04:52:45;;;;;;;6.00;1.90;;;;;;;16.90;82.55;100275.31;106855;1272;99576;-71
2023/08/17 04:55:17;;;;;;;2.30;1.10;;;;;;;16.91;82.65;100278.45;106484;1274;23966;-72
2023/08/17 04:57:48;;;;;;;9.20;1.40;;;;;;;16.94;82.68;100285.45;106671;1272;26513;-72
2023/08/17 05:00:17;;;;;;;4.50;1.00;;;;;;;16.96;82.74;100287.75;106483;1272;98700;-72
2023/08/17 05:02:46;;;;;;;4.20;1.10;;;;;;;16.94;82.25;100300.02;106599;1272;24092;-72
2023/08/17 05:05:15;;;;;;;3.60;1.00;;;;;;;16.91;82.33;100310.60;106759;1272;100088;-71
2023/08/17 05:07:44;;;;;;;6.20;1.50;;;;;;;16.92;82.53;100315.98;106511;1272;22598;-72
2023/08/17 05:10:22;;;;;;;5.50;1.60;;;;;;;16.95;82.56;100315.80;106646;1272;25094;-72
2023/08/17 05:12:51;;;;;;;7.10;1.50;;;;;;;17.02;82.82;100312.36;106813;1274;99680;-72
2023/08/17 05:15:28;;;;;;;10.70;1.30;;;;;;;17.15;82.98;100314.13;106744;1272;22529;-73
2023/08/17 05:18:00;;;;;;;9.10;2.00;;;;;;;17.30;82.80;100319.02;106511;1272;99582;-72
2023/08/17 05:20:29;;;;;;;5.90;1.50;;;;;;;17.38;82.73;100326.39;106323;1272;22545;-73
2023/08/17 05:22:58;;;;;;;1.80;1.10;;;;;;;17.41;82.30;100336.33;106360;1272;99610;-73
2023/08/17 05:25:29;;;;;;;2.80;1.00;;;;;;;17.35;82.11;100344.19;106646;1272;25413;-73
2023/08/17 05:27:58;;;;;;;5.60;1.20;;;;;;;17.30;82.26;100343.59;106644;1272;22535;-73
2023/08/17 05:30:27;;;;;;;5.40;2.00;;;;;;;17.30;82.47;100346.98;106525;1273;100184;-72
2023/08/17 05:32:56;;;;;;;4.00;1.10;;;;;;;17.41;83.03;100345.30;106656;1272;24208;-73
2023/08/17 05:35:26;;;;;;;4.70;1.50;;;;;;;17.52;82.79;100346.02;106374;1272;99662;-73
2023/08/17 05:37:57;;;;;;;2.50;0.90;;;;;;;17.52;82.95;100349.02;106745;1272;22584;-73
2023/08/17 05:40:26;;;;;;;3.40;0.90;;;;;;;17.59;82.98;100350.10;106565;1272;22584;-73
2023/08/17 05:42:55;;;;;;;1.50;0.80;;;;;;;17.59;82.53;100341.13;106390;1273;99573;-72
2023/08/17 05:45:23;;;;;;;3.60;1.00;;;;;;;17.53;82.46;100324.52;106470;1272;24360;-74
2023/08/17 05:47:52;;;;;;;2.80;1.10;;;;;;;17.50;82.57;100322.40;106497;1273;99740;-72
2023/08/17 05:50:21;;;;;;;2.80;0.70;;;;;;;17.48;82.51;100319.38;106557;1272;22996;-73
2023/08/17 05:52:50;;;;;;;4.90;1.60;;;;;;;17.45;82.95;100317.61;106648;1274;99653;-73
2023/08/17 05:55:19;;;;;;;1.30;0.70;;;;;;;17.52;83.51;100312.38;106451;1272;22561;-73
2023/08/17 05:57:48;;;;;;;7.50;0.70;;;;;;;17.62;83.68;100311.41;106538;1272;22652;-74
2023/08/17 06:00:17;;;;;;;1.10;0.90;;;;;;;17.71;83.79;100304.95;106324;1274;99715;-72
2023/08/17 06:02:49;;;;;;;2.10;0.70;;;;;;;17.81;83.85;100299.94;106537;1274;22548;-74
2023/08/17 06:05:18;;;;;;;1.00;0.40;;;;;;;17.85;83.92;100291.18;104034;1272;3435916;-69
2023/08/17 06:07:47;;;;;;;2.80;0.80;;;;;;;17.89;83.87;100287.20;106633;1272;22537;-73
2023/08/17 06:10:16;;;;;;;1.20;0.90;;;;;;;17.94;83.97;100290.24;106521;1272;23050;-73
2023/08/17 06:12:45;;;;;;;2.50;0.70;;;;;;;18.01;84.08;100290.46;106326;1272;101352;-73
2023/08/17 06:15:14;;;;;;;4.50;1.10;;;;;;;18.06;83.96;100273.02;106698;1272;22526;-74
2023/08/17 06:17:43;;;;;;;3.50;0.90;;;;;;;18.14;84.14;100258.70;106626;1272;99549;-64
2023/08/17 06:20:13;;;;;;;1.70;0.90;;;;;;;18.25;83.91;100251.92;106607;1274;25416;-63
2023/08/17 06:22:42;;;;;;;1.60;1.00;;;;;;;18.29;84.01;100253.10;106496;1273;99649;-61
2023/08/17 06:25:11;;;;;;;1.10;0.80;;;;;;;18.37;84.00;100252.84;106671;1275;22545;-63
2023/08/17 06:27:42;;;;;;;3.30;0.80;;;;;;;18.48;83.83;100254.52;106473;1277;22540;-63
2023/08/17 06:30:12;;;;;;;2.10;0.90;;;;;;;18.62;84.04;100257.05;106373;1272;99553;-62
2023/08/17 06:32:40;;;;;;;2.50;0.80;;;;;;;18.81;84.10;100255.91;106675;1274;22550;-63
2023/08/17 06:35:13;;;;;;;2.80;0.80;;;;;;;18.96;83.91;100254.02;106555;1272;101537;-64
2023/08/17 06:37:41;;;;;;;1.50;0.80;;;;;;;18.95;83.58;100246.55;106389;1272;22591;-67
2023/08/17 06:40:10;;;;;;;5.20;1.20;;;;;;;18.89;83.59;100243.99;106547;1272;22580;-66
2023/08/17 06:42:40;;;;;;;1.70;0.70;;;;;;;18.83;83.61;100247.81;106595;1272;99375;-65
2023/08/17 06:45:09;;;;;;;1.90;0.90;;;;;;;18.75;83.46;100256.33;107025;1272;22532;-74
2023/08/17 06:47:37;;;;;;;2.00;0.60;;;;;;;18.66;83.66;100265.63;106426;1272;99490;-77
2023/08/17 06:50:06;;;;;;;3.10;1.20;;;;;;;18.59;83.43;100274.00;106327;1272;29586;-67
2023/08/17 06:52:40;;;;;;;5.20;0.80;;;;;;;18.49;83.49;100288.81;106602;1272;25440;-69
2023/08/17 06:55:12;;;;;;;2.70;0.80;;;;;;;18.41;83.63;100299.84;106200;1273;26501;-63
2023/08/17 06:57:41;;;;;;;4.00;0.60;;;;;;;18.44;84.16;100308.36;106981;1272;25489;-67
2023/08/17 07:00:11;;;;;;;4.00;0.90;;;;;;;18.53;84.26;100316.20;106285;1272;99542;-71
2023/08/17 07:02:40;;;;;;;5.90;1.10;;;;;;;18.61;84.35;100317.29;106617;1272;22526;-65
2023/08/17 07:05:22;;;;;;;4.20;1.00;;;;;;;18.67;84.16;100307.80;106674;1271;99775;-65
2023/08/17 07:07:52;;;;;;;3.30;1.30;;;;;;;18.65;83.74;100304.64;106915;1272;22898;-70
2023/08/17 07:10:21;;;;;;;3.20;1.20;;;;;;;18.59;83.60;100309.11;106659;1272;22531;-70
2023/08/17 07:12:53;;;;;;;4.30;1.20;;;;;;;18.54;83.53;100322.65;106518;1272;99786;-75
2023/08/17 07:15:22;;;;;;;1.90;0.80;;;;;;;18.45;83.57;100338.46;106626;1272;22534;-69
2023/08/17 07:17:50;;;;;;;1.50;0.70;;;;;;;18.30;83.19;100342.02;106550;1268;99467;-62
2023/08/17 07:20:19;;;;;;;2.20;0.70;;;;;;;18.10;84.28;100349.73;106638;1271;25231;-63
2023/08/17 07:22:48;;;;;;;1.50;0.80;;;;;;;18.20;85.09;100355.02;106631;1273;100643;-67
2023/08/17 07:25:17;;;;;;;3.30;1.10;;;;;;;18.34;85.61;100356.69;106513;1272;24331;-75
2023/08/17 07:27:47;;;;;;;3.50;0.80;;;;;;;18.48;85.72;100361.86;106579;1262;22530;-69
2023/08/17 07:30:17;;;;;;;1.70;0.60;;;;;;;18.63;85.96;100366.29;106484;1272;99560;-68
2023/08/17 07:32:46;;;;;;;1.70;0.90;;;;;;;18.75;85.82;100371.80;106490;1272;22526;-61
2023/08/17 07:35:15;;;;;;;1.20;0.50;;;;;;;18.85;85.68;100367.44;106509;1272;99696;-65
2023/08/17 07:37:44;;;;;;;1.80;0.60;;;;;;;18.90;85.53;100365.12;106614;1272;25417;-66
2023/08/17 07:40:27;;;;;;;2.10;0.60;;;;;;;18.97;85.54;100362.29;106527;1272;25226;-69
2023/08/17 07:43:13;;;;;;;4.90;0.90;;;;;;;19.02;85.40;100357.17;106494;1272;99539;-68
2023/08/17 07:45:42;;;;;;;3.20;0.70;;;;;;;19.12;85.41;100352.09;106668;1268;22574;-66
2023/08/17 07:48:11;;;;;;;1.60;0.60;;;;;;;19.18;85.09;100348.27;106520;1272;100024;-71
2023/08/17 07:50:42;;;;;;;1.40;0.60;;;;;;;19.17;84.84;100344.32;106650;1272;24209;-70
2023/08/17 07:53:12;;;;;;;3.50;0.80;;;;;;;19.23;84.75;100345.44;106337;1272;100208;-74
2023/08/17 07:55:41;;;;;;;2.30;0.70;;;;;;;19.35;84.85;100351.23;106728;1273;22636;-78
2023/08/17 07:58:10;;;;;;;3.20;0.50;;;;;;;19.48;84.93;100349.73;106571;1274;22643;-72
2023/08/17 08:00:42;;;;;;;3.00;1.00;;;;;;;19.67;84.63;100353.15;106440;1272;99486;-77
2023/08/17 08:03:11;;;;;;;1.30;0.90;;;;;;;19.90;85.41;100356.84;106504;1272;25367;-76
2023/08/17 08:05:40;;;;;;;1.60;0.30;;;;;;;20.20;85.31;100350.48;106349;1272;100137;-76
2023/08/17 08:08:14;;;;;;;1.40;0.90;;;;;;;20.34;85.02;100351.01;106616;1274;24037;-76
2023/08/17 08:10:46;;;;;;;2.20;0.70;;;;;;;20.33;84.08;100353.57;106494;1272;100105;-76
2023/08/17 08:13:16;;;;;;;5.00;1.20;;;;;;;20.31;84.58;100354.08;106554;1273;25551;-76
2023/08/17 08:15:49;;;;;;;4.00;1.10;;;;;;;20.51;84.58;100355.38;106591;1272;24231;-76
2023/08/17 08:18:18;;;;;;;3.60;1.00;;;;;;;20.71;84.48;100352.88;106574;1271;99462;-76
2023/08/17 08:20:49;;;;;;;2.10;0.90;;;;;;;21.04;84.14;100357.89;106527;1256;22550;-76
2023/08/17 08:23:17;;;;;;;1.20;0.70;;;;;;;21.25;83.93;100359.73;106493;1268;99699;-76
2023/08/17 08:25:46;;;;;;;1.30;0.60;;;;;;;21.44;83.29;100358.19;106735;1272;26742;-76
2023/08/17 08:28:15;;;;;;;2.70;0.70;;;;;;;21.35;82.51;100358.35;106589;1269;24208;-78
2023/08/17 08:30:44;;;;;;;4.20;0.90;;;;;;;21.13;82.17;100350.26;106516;1272;99437;-77
2023/08/17 08:33:13;;;;;;;2.50;1.00;;;;;;;21.00;82.20;100349.73;106274;1264;22617;-77
2023/08/17 08:35:42;;;;;;;2.10;1.20;;;;;;;20.98;82.09;100338.14;106540;1274;99504;-77
2023/08/17 08:38:14;;;;;;;3.30;0.90;;;;;;;20.97;81.88;100338.63;106588;1265;23260;-76
2023/08/17 08:40:47;;;;;;;1.50;0.60;;;;;;;20.93;81.68;100338.95;106553;1273;99654;-74
2023/08/17 08:43:18;;;;;;;3.80;0.90;;;;;;;20.92;81.71;100335.16;106456;1272;27210;-77
2023/08/17 08:45:49;;;;;;;4.00;0.80;;;;;;;20.74;81.20;100330.23;106717;1272;25454;-75
2023/08/17 08:48:30;;;;;;;1.70;0.70;;;;;;;20.53;81.07;100319.11;106405;1272;99542;-76
2023/08/17 08:51:01;;;;;;;2.70;0.80;;;;;;;20.45;81.06;100309.53;106681;1272;24274;-77
2023/08/17 08:53:38;;;;;;;1.50;0.80;;;;;;;20.42;81.15;100302.19;106571;1274;99678;-77
2023/08/17 08:56:12;;;;;;;2.50;1.00;;;;;;;20.42;81.00;100294.18;106858;1274;24755;-75
2023/08/17 08:58:46;;;;;;;5.10;0.60;;;;;;;20.38;80.69;100289.89;106341;1274;100452;-78
2023/08/17 09:01:33;;;;;;;1.50;0.70;;;;;;;20.30;80.60;100289.62;106619;1272;22607;-75
2023/08/17 09:04:14;;;;;;;0.90;0.60;;;;;;;20.28;80.68;100291.21;106623;1272;22536;-75
2023/08/17 09:06:46;;;;;;;1.50;0.60;;;;;;;20.36;80.51;100292.01;106482;1272;99556;-78
2023/08/17 09:09:18;;;;;;;1.40;0.30;;;;;;;20.44;80.65;100292.09;106338;1277;23861;-77
2023/08/17 09:11:51;;;;;;;0.60;0.30;;;;;;;20.67;80.76;100301.00;106576;1272;99707;-77
2023/08/17 09:14:20;;;;;;;1.90;0.40;;;;;;;20.94;80.39;100302.20;106605;1272;22531;-76
2023/08/17 09:16:52;;;;;;;1.00;0.50;;;;;;;21.11;80.30;100302.06;106772;1272;100410;-76
2023/08/17 09:19:28;;;;;;;2.00;0.50;;;;;;;21.54;80.26;100303.51;107044;1272;22670;-76
2023/08/17 09:21:57;;;;;;;1.00;0.40;;;;;;;21.97;80.07;100308.52;106550;1267;22540;-76
2023/08/17 09:24:42;;;;;;;1.10;0.40;;;;;;;22.40;79.77;100314.27;106517;1274;100395;-76
2023/08/17 09:27:13;;;;;;;1.60;0.80;;;;;;;22.96;79.87;100316.93;106866;1272;25360;-76
2023/08/17 09:29:45;;;;;;;0.70;0.50;;;;;;;23.44;79.57;100308.67;107002;1275;99419;-75
2023/08/17 09:32:16;;;;;;;1.50;0.60;;;;;;;23.63;78.87;100314.36;106391;1272;25555;-74
2023/08/17 09:34:45;;;;;;;0.90;0.30;;;;;;;23.90;77.87;100318.48;106714;1272;99710;-74
2023/08/17 09:37:16;;;;;;;0.80;0.30;;;;;;;24.35;77.82;100317.92;108726;1263;39790;-70
2023/08/17 09:39:46;;;;;;;1.00;0.20;;;;;;;25.33;78.55;100322.79;110342;1270;22427;-73
2023/08/17 09:42:17;;;;;;;1.00;0.20;;;;;;;26.80;77.75;100320.85;110044;1270;99649;-67
2023/08/17 09:44:47;;;;;;;2.60;0.40;;;;;;;27.49;75.29;100325.34;110215;1272;22317;-73
2023/08/17 09:47:36;;;;;;;1.10;0.30;;;;;;;27.53;73.13;100332.11;110029;1271;99796;-72
2023/08/17 09:50:06;;;;;;;1.70;0.60;;;;;;;26.73;71.57;100336.88;110304;1270;22613;-68
2023/08/17 09:52:41;;;;;;;1.20;0.50;;;;;;;25.84;69.44;100327.86;110173;1273;22965;-67
2023/08/17 09:55:12;;;;;;;0.90;0.30;;;;;;;25.00;68.71;100322.15;110185;1270;23098;-68
2023/08/17 09:57:42;;;;;;;1.20;0.40;;;;;;;24.57;68.58;100316.02;110227;1267;22131;-65
2023/08/17 10:00:11;;;;;;;0.40;0.30;;;;;;;24.31;68.22;100324.94;110190;1270;100028;-70
2023/08/17 10:02:42;;;;;;;0.50;0.20;;;;;;;24.00;67.67;100333.89;110073;1274;22900;-73
2023/08/17 10:05:13;;;;;;;1.30;0.40;;;;;;;23.75;67.25;100328.38;110070;1272;99682;-71
2023/08/17 10:07:48;;;;;;;1.00;0.40;;;;;;;23.80;67.38;100321.40;110264;1270;22778;-67
2023/08/17 10:10:24;;;;;;;0.80;0.30;;;;;;;23.95;67.38;100315.34;110160;1270;22306;-64
2023/08/17 10:13:10;;;;;;;1.40;0.40;;;;;;;24.44;67.24;100314.65;110052;1269;100071;-66
2023/08/17 10:15:55;;;;;;;0.70;0.20;;;;;;;24.72;66.67;100313.86;110155;1270;22010;-69
2023/08/17 10:19:03;;;;;;;0.60;0.20;;;;;;;24.88;66.33;100317.11;110168;1269;99442;-68
2023/08/17 10:21:47;;;;;;;0.80;0.40;;;;;;;24.42;64.65;100314.22;109787;1280;22387;-65
2023/08/17 10:24:19;;;;;;;1.40;0.40;;;;;;;24.38;65.09;100310.44;109730;1273;99569;-64
2023/08/17 10:26:52;;;;;;;3.40;0.30;;;;;;;24.34;64.88;100311.60;109637;1280;22205;-68
2023/08/17 10:29:24;;;;;;;0.90;0.40;;;;;;;24.30;64.84;100312.17;109533;1280;101449;-66
2023/08/17 10:31:55;;;;;;;1.00;0.20;;;;;;;23.91;63.04;100319.25;109723;1280;22288;-65
2023/08/17 10:34:25;;;;;;;0.70;0.40;;;;;;;23.27;62.32;100329.92;109608;1280;22292;-73
2023/08/17 10:36:57;;;;;;;1.30;0.40;;;;;;;22.97;62.21;100332.81;109492;1280;99498;-66
2023/08/17 10:39:30;;;;;;;1.10;0.30;;;;;;;22.73;62.23;100335.25;109770;1279;23447;-69
2023/08/17 10:42:01;;;;;;;1.30;0.30;;;;;;;22.79;62.78;100329.44;109451;1280;99969;-66
2023/08/17 10:44:46;;;;;;;0.60;0.50;;;;;;;22.98;62.63;100320.33;109663;1280;22980;-69
2023/08/17 10:47:23;;;;;;;1.30;0.30;;;;;;;23.46;62.93;100320.92;109544;1280;99698;-70
2023/08/17 10:50:29;;;;;;;0.90;0.40;;;;;;;23.69;61.54;100318.45;109635;1280;22254;-68
2023/08/17 10:53:08;;;;;;;0.70;0.30;;;;;;;24.38;61.66;100313.41;109634;1280;99903;-70
2023/08/17 10:55:52;;;;;;;1.20;0.40;;;;;;;24.88;60.32;100305.36;109688;1280;22323;-73
2023/08/17 10:58:22;;;;;;;1.90;0.30;;;;;;;24.92;60.08;100291.30;109925;1270;22931;-70
2023/08/17 11:00:56;;;;;;;3.20;0.70;;;;;;;25.09;60.15;100288.17;110110;1269;99729;-69
2023/08/17 11:03:29;;;;;;;1.10;0.50;;;;;;;25.26;59.59;100296.67;110182;1270;22946;-74
2023/08/17 11:06:15;;;;;;;0.90;0.50;;;;;;;25.64;57.99;100304.44;110153;1270;99496;-72
2023/08/17 11:08:55;;;;;;;1.00;0.40;;;;;;;26.18;58.45;100304.23;110113;1271;23171;-71
2023/08/17 11:11:31;;;;;;;0.90;0.50;;;;;;;28.39;57.48;100290.93;110221;1270;100091;-70
2023/08/17 11:14:00;;;;;;;1.30;0.50;;;;;;;30.30;56.16;100286.77;110133;1270;22165;-69
2023/08/17 11:16:31;;;;;;;1.40;0.40;;;;;;;30.91;52.48;100292.04;110255;1273;22155;-70
2023/08/17 11:19:01;;;;;;;3.30;0.50;;;;;;;30.87;49.96;100287.39;110179;1272;99283;-76
2023/08/17 11:21:36;;;;;;;0.60;0.30;;;;;;;30.92;49.19;100291.68;110273;1269;22279;-71
2023/08/17 11:24:09;;;;;;;0.80;0.30;;;;;;;30.29;46.21;100286.93;110316;1270;99396;-70
2023/08/17 11:26:50;;;;;;;0.90;0.40;;;;;;;30.17;45.84;100285.08;110169;1270;23022;-67
2023/08/17 11:29:30;;;;;;;2.30;0.60;;;;;;;29.89;43.54;100285.66;110281;1269;99691;-69
2023/08/17 11:31:59;;;;;;;2.00;0.60;;;;;;;29.89;43.61;100284.19;110172;1270;22283;-67
2023/08/17 11:34:57;;;;;;;2.10;0.70;;;;;;;30.62;43.56;100285.58;110254;1270;23003;-68
2023/08/17 11:37:28;;;;;;;2.00;0.60;;;;;;;32.19;43.95;100282.80;110212;1270;22146;-70
2023/08/17 11:39:57;;;;;;;1.30;0.50;;;;;;;32.50;42.96;100284.39;110388;1270;22652;-72